sensor_id;sensor_type;location;lat;lon;timestamp;P1;durP1;ratioP1;P2;durP2;ratioP2
26261;SDS011;13988;52.446;13.280;2023-07-31T00:01:46;1.00;;;0.90;;
26261;SDS011;13988;52.446;13.280;2023-07-31T00:04:11;1.38;;;0.93;;
26261;SDS011;13988;52.446;13.280;2023-07-31T00:06:37;1.10;;;0.80;;
26261;SDS011;13988;52.446;13.280;2023-07-31T00:09:02;0.73;;;0.73;;
26261;SDS011;13988;52.446;13.280;2023-07-31T00:11:28;4.57;;;0.80;;
26261;SDS011;13988;52.446;13.280;2023-07-31T00:13:53;4.50;;;1.38;;
26261;SDS011;13988;52.446;13.280;2023-07-31T00:16:19;3.58;;;1.00;;
26261;SDS011;13988;52.446;13.280;2023-07-31T00:18:45;1.02;;;1.00;;
26261;SDS011;13988;52.446;13.280;2023-07-31T00:21:10;3.03;;;1.15;;
26261;SDS011;13988;52.446;13.280;2023-07-31T00:23:36;1.98;;;1.10;;
26261;SDS011;13988;52.446;13.280;2023-07-31T00:26:01;1.52;;;1.02;;
26261;SDS011;13988;52.446;13.280;2023-07-31T00:28:27;1.65;;;0.93;;
26261;SDS011;13988;52.446;13.280;2023-07-31T00:30:54;1.27;;;1.10;;
26261;SDS011;13988;52.446;13.280;2023-07-31T00:33:20;1.05;;;0.85;;
26261;SDS011;13988;52.446;13.280;2023-07-31T00:35:46;1.25;;;1.15;;
26261;SDS011;13988;52.446;13.280;2023-07-31T00:38:12;2.05;;;1.13;;
26261;SDS011;13988;52.446;13.280;2023-07-31T00:40:38;1.65;;;1.27;;
26261;SDS011;13988;52.446;13.280;2023-07-31T00:43:03;3.60;;;1.08;;
26261;SDS011;13988;52.446;13.280;2023-07-31T00:45:29;1.33;;;1.23;;
26261;SDS011;13988;52.446;13.280;2023-07-31T00:47:55;2.97;;;1.30;;
26261;SDS011;13988;52.446;13.280;2023-07-31T00:50:22;3.80;;;2.03;;
26261;SDS011;13988;52.446;13.280;2023-07-31T00:52:49;2.35;;;1.40;;
26261;SDS011;13988;52.446;13.280;2023-07-31T00:55:15;1.75;;;1.45;;
26261;SDS011;13988;52.446;13.280;2023-07-31T00:57:41;1.52;;;1.00;;
26261;SDS011;13988;52.446;13.280;2023-07-31T01:00:07;1.40;;;1.20;;
26261;SDS011;13988;52.446;13.280;2023-07-31T01:02:33;3.00;;;1.10;;
26261;SDS011;13988;52.446;13.280;2023-07-31T01:05:00;1.98;;;1.08;;
26261;SDS011;13988;52.446;13.280;2023-07-31T01:07:33;2.45;;;1.30;;
26261;SDS011;13988;52.446;13.280;2023-07-31T01:10:23;1.48;;;1.10;;
26261;SDS011;13988;52.446;13.280;2023-07-31T01:12:51;1.73;;;1.02;;
26261;SDS011;13988;52.446;13.280;2023-07-31T01:15:21;5.35;;;1.30;;
26261;SDS011;13988;52.446;13.280;2023-07-31T01:17:47;1.33;;;1.23;;
26261;SDS011;13988;52.446;13.280;2023-07-31T01:20:22;1.85;;;1.20;;
26261;SDS011;13988;52.446;13.280;2023-07-31T01:26:00;1.33;;;1.13;;
26261;SDS011;13988;52.446;13.280;2023-07-31T01:31:01;2.28;;;0.98;;
26261;SDS011;13988;52.446;13.280;2023-07-31T01:33:31;2.35;;;1.45;;
26261;SDS011;13988;52.446;13.280;2023-07-31T01:35:57;1.40;;;1.25;;
26261;SDS011;13988;52.446;13.280;2023-07-31T01:38:22;5.50;;;1.60;;
26261;SDS011;13988;52.446;13.280;2023-07-31T01:40:51;1.42;;;1.17;;
26261;SDS011;13988;52.446;13.280;2023-07-31T01:43:18;1.55;;;1.05;;
26261;SDS011;13988;52.446;13.280;2023-07-31T01:45:44;5.25;;;1.42;;
26261;SDS011;13988;52.446;13.280;2023-07-31T01:48:10;2.10;;;1.60;;
26261;SDS011;13988;52.446;13.280;2023-07-31T01:50:35;6.05;;;1.73;;
26261;SDS011;13988;52.446;13.280;2023-07-31T01:53:01;2.83;;;1.20;;
26261;SDS011;13988;52.446;13.280;2023-07-31T01:55:27;1.20;;;1.10;;
26261;SDS011;13988;52.446;13.280;2023-07-31T01:57:52;1.38;;;1.27;;
26261;SDS011;13988;52.446;13.280;2023-07-31T02:00:18;5.80;;;1.35;;
26261;SDS011;13988;52.446;13.280;2023-07-31T02:02:44;2.00;;;1.10;;
26261;SDS011;13988;52.446;13.280;2023-07-31T02:05:10;2.88;;;1.63;;
26261;SDS011;13988;52.446;13.280;2023-07-31T02:07:35;2.75;;;1.23;;
26261;SDS011;13988;52.446;13.280;2023-07-31T02:10:01;3.10;;;1.40;;
26261;SDS011;13988;52.446;13.280;2023-07-31T02:12:26;1.27;;;1.23;;
26261;SDS011;13988;52.446;13.280;2023-07-31T02:14:55;1.42;;;1.30;;
26261;SDS011;13988;52.446;13.280;2023-07-31T02:17:21;1.38;;;1.27;;
26261;SDS011;13988;52.446;13.280;2023-07-31T02:19:46;2.05;;;1.38;;
26261;SDS011;13988;52.446;13.280;2023-07-31T02:22:12;1.85;;;1.23;;
26261;SDS011;13988;52.446;13.280;2023-07-31T02:24:38;1.73;;;1.63;;
26261;SDS011;13988;52.446;13.280;2023-07-31T02:27:03;2.30;;;1.30;;
26261;SDS011;13988;52.446;13.280;2023-07-31T02:29:29;1.60;;;1.50;;
26261;SDS011;13988;52.446;13.280;2023-07-31T02:31:55;2.10;;;1.52;;
26261;SDS011;13988;52.446;13.280;2023-07-31T02:34:20;1.55;;;1.45;;
26261;SDS011;13988;52.446;13.280;2023-07-31T02:36:46;1.40;;;1.02;;
26261;SDS011;13988;52.446;13.280;2023-07-31T02:39:11;1.80;;;1.50;;
26261;SDS011;13988;52.446;13.280;2023-07-31T02:41:37;4.85;;;1.25;;
26261;SDS011;13988;52.446;13.280;2023-07-31T02:44:03;2.83;;;1.65;;
26261;SDS011;13988;52.446;13.280;2023-07-31T02:46:28;2.67;;;1.38;;
26261;SDS011;13988;52.446;13.280;2023-07-31T02:48:54;1.70;;;1.60;;
26261;SDS011;13988;52.446;13.280;2023-07-31T02:51:19;1.52;;;1.42;;
26261;SDS011;13988;52.446;13.280;2023-07-31T02:53:46;2.17;;;1.42;;
26261;SDS011;13988;52.446;13.280;2023-07-31T02:56:12;3.00;;;1.58;;
26261;SDS011;13988;52.446;13.280;2023-07-31T02:58:38;2.53;;;1.70;;
26261;SDS011;13988;52.446;13.280;2023-07-31T03:01:04;1.77;;;1.50;;
26261;SDS011;13988;52.446;13.280;2023-07-31T03:03:30;3.00;;;1.60;;
26261;SDS011;13988;52.446;13.280;2023-07-31T03:05:55;2.47;;;2.13;;
26261;SDS011;13988;52.446;13.280;2023-07-31T03:08:21;2.08;;;1.60;;
26261;SDS011;13988;52.446;13.280;2023-07-31T03:10:46;2.88;;;2.03;;
26261;SDS011;13988;52.446;13.280;2023-07-31T03:13:12;4.28;;;1.83;;
26261;SDS011;13988;52.446;13.280;2023-07-31T03:15:38;2.38;;;1.73;;
26261;SDS011;13988;52.446;13.280;2023-07-31T03:18:06;2.95;;;1.88;;
26261;SDS011;13988;52.446;13.280;2023-07-31T03:20:32;2.38;;;1.70;;
26261;SDS011;13988;52.446;13.280;2023-07-31T03:22:57;2.45;;;1.92;;
26261;SDS011;13988;52.446;13.280;2023-07-31T03:25:23;3.95;;;1.70;;
26261;SDS011;13988;52.446;13.280;2023-07-31T03:27:48;6.95;;;2.85;;
26261;SDS011;13988;52.446;13.280;2023-07-31T03:30:14;4.20;;;1.77;;
26261;SDS011;13988;52.446;13.280;2023-07-31T03:32:40;1.90;;;1.70;;
26261;SDS011;13988;52.446;13.280;2023-07-31T03:35:05;3.75;;;1.98;;
26261;SDS011;13988;52.446;13.280;2023-07-31T03:37:31;4.32;;;2.10;;
26261;SDS011;13988;52.446;13.280;2023-07-31T03:39:57;3.15;;;1.70;;
26261;SDS011;13988;52.446;13.280;2023-07-31T03:42:22;2.42;;;1.70;;
26261;SDS011;13988;52.446;13.280;2023-07-31T03:44:48;2.63;;;1.80;;
26261;SDS011;13988;52.446;13.280;2023-07-31T03:47:13;1.90;;;1.70;;
26261;SDS011;13988;52.446;13.280;2023-07-31T03:49:39;3.78;;;2.22;;
26261;SDS011;13988;52.446;13.280;2023-07-31T03:52:05;3.40;;;1.90;;
26261;SDS011;13988;52.446;13.280;2023-07-31T03:54:31;3.47;;;1.63;;
26261;SDS011;13988;52.446;13.280;2023-07-31T03:56:56;2.13;;;1.80;;
26261;SDS011;13988;52.446;13.280;2023-07-31T03:59:22;3.88;;;2.55;;
26261;SDS011;13988;52.446;13.280;2023-07-31T04:01:47;2.45;;;1.50;;
26261;SDS011;13988;52.446;13.280;2023-07-31T04:04:13;5.45;;;1.83;;
26261;SDS011;13988;52.446;13.280;2023-07-31T04:06:39;4.72;;;2.08;;
26261;SDS011;13988;52.446;13.280;2023-07-31T04:09:04;3.53;;;2.03;;
26261;SDS011;13988;52.446;13.280;2023-07-31T04:11:30;3.17;;;2.28;;
26261;SDS011;13988;52.446;13.280;2023-07-31T04:13:56;7.00;;;2.35;;
26261;SDS011;13988;52.446;13.280;2023-07-31T04:16:21;3.20;;;1.80;;
26261;SDS011;13988;52.446;13.280;2023-07-31T04:18:47;2.20;;;1.60;;
26261;SDS011;13988;52.446;13.280;2023-07-31T04:21:12;2.05;;;1.70;;
26261;SDS011;13988;52.446;13.280;2023-07-31T04:23:38;4.47;;;1.88;;
26261;SDS011;13988;52.446;13.280;2023-07-31T04:26:04;4.28;;;1.70;;
26261;SDS011;13988;52.446;13.280;2023-07-31T04:28:29;2.45;;;1.70;;
26261;SDS011;13988;52.446;13.280;2023-07-31T04:30:56;2.95;;;2.00;;
26261;SDS011;13988;52.446;13.280;2023-07-31T04:33:22;2.55;;;1.88;;
26261;SDS011;13988;52.446;13.280;2023-07-31T04:35:48;2.53;;;1.70;;
26261;SDS011;13988;52.446;13.280;2023-07-31T04:38:17;1.65;;;1.55;;
26261;SDS011;13988;52.446;13.280;2023-07-31T04:40:43;8.27;;;1.83;;
26261;SDS011;13988;52.446;13.280;2023-07-31T04:43:09;3.33;;;1.70;;
26261;SDS011;13988;52.446;13.280;2023-07-31T04:45:34;3.13;;;2.00;;
26261;SDS011;13988;52.446;13.280;2023-07-31T04:48:00;1.80;;;1.70;;
26261;SDS011;13988;52.446;13.280;2023-07-31T04:50:26;4.82;;;1.88;;
26261;SDS011;13988;52.446;13.280;2023-07-31T04:52:51;2.00;;;1.77;;
26261;SDS011;13988;52.446;13.280;2023-07-31T04:55:17;4.88;;;2.35;;
26261;SDS011;13988;52.446;13.280;2023-07-31T04:57:42;2.42;;;1.85;;
26261;SDS011;13988;52.446;13.280;2023-07-31T05:00:08;2.33;;;1.90;;
26261;SDS011;13988;52.446;13.280;2023-07-31T05:02:34;2.63;;;1.92;;
26261;SDS011;13988;52.446;13.280;2023-07-31T05:05:00;3.38;;;2.03;;
26261;SDS011;13988;52.446;13.280;2023-07-31T05:07:25;3.25;;;1.70;;
26261;SDS011;13988;52.446;13.280;2023-07-31T05:09:51;3.70;;;1.73;;
26261;SDS011;13988;52.446;13.280;2023-07-31T05:12:16;3.38;;;1.90;;
26261;SDS011;13988;52.446;13.280;2023-07-31T05:14:42;1.92;;;1.65;;
26261;SDS011;13988;52.446;13.280;2023-07-31T05:17:08;4.05;;;1.70;;
26261;SDS011;13988;52.446;13.280;2023-07-31T05:19:33;3.58;;;1.83;;
26261;SDS011;13988;52.446;13.280;2023-07-31T05:21:59;1.42;;;1.33;;
26261;SDS011;13988;52.446;13.280;2023-07-31T05:24:24;1.67;;;1.58;;
26261;SDS011;13988;52.446;13.280;2023-07-31T05:26:50;3.38;;;1.60;;
26261;SDS011;13988;52.446;13.280;2023-07-31T05:29:16;7.43;;;2.28;;
26261;SDS011;13988;52.446;13.280;2023-07-31T05:31:41;2.70;;;2.10;;
26261;SDS011;13988;52.446;13.280;2023-07-31T05:34:07;4.00;;;1.45;;
26261;SDS011;13988;52.446;13.280;2023-07-31T05:36:32;2.75;;;1.65;;
26261;SDS011;13988;52.446;13.280;2023-07-31T05:38:58;2.47;;;1.30;;
26261;SDS011;13988;52.446;13.280;2023-07-31T05:41:24;3.30;;;1.73;;
26261;SDS011;13988;52.446;13.280;2023-07-31T05:43:49;4.35;;;1.80;;
26261;SDS011;13988;52.446;13.280;2023-07-31T05:46:16;3.00;;;1.92;;
26261;SDS011;13988;52.446;13.280;2023-07-31T05:48:42;2.05;;;1.50;;
26261;SDS011;13988;52.446;13.280;2023-07-31T05:51:07;2.50;;;1.75;;
26261;SDS011;13988;52.446;13.280;2023-07-31T05:53:33;5.25;;;1.73;;
26261;SDS011;13988;52.446;13.280;2023-07-31T05:55:58;2.42;;;1.67;;
26261;SDS011;13988;52.446;13.280;2023-07-31T05:58:24;2.45;;;1.50;;
26261;SDS011;13988;52.446;13.280;2023-07-31T06:00:50;2.97;;;1.80;;
26261;SDS011;13988;52.446;13.280;2023-07-31T06:03:15;2.78;;;1.58;;
26261;SDS011;13988;52.446;13.280;2023-07-31T06:05:41;1.80;;;1.63;;
26261;SDS011;13988;52.446;13.280;2023-07-31T06:08:06;4.10;;;2.13;;
26261;SDS011;13988;52.446;13.280;2023-07-31T06:10:32;1.60;;;1.50;;
26261;SDS011;13988;52.446;13.280;2023-07-31T06:12:58;3.38;;;1.40;;
26261;SDS011;13988;52.446;13.280;2023-07-31T06:15:23;1.42;;;1.33;;
26261;SDS011;13988;52.446;13.280;2023-07-31T06:17:49;2.70;;;1.70;;
26261;SDS011;13988;52.446;13.280;2023-07-31T06:20:14;6.32;;;1.88;;
26261;SDS011;13988;52.446;13.280;2023-07-31T06:22:40;2.33;;;1.90;;
26261;SDS011;13988;52.446;13.280;2023-07-31T06:25:06;2.42;;;1.55;;
26261;SDS011;13988;52.446;13.280;2023-07-31T06:27:32;3.22;;;1.67;;
26261;SDS011;13988;52.446;13.280;2023-07-31T06:29:57;3.20;;;1.88;;
26261;SDS011;13988;52.446;13.280;2023-07-31T06:32:23;1.55;;;1.42;;
26261;SDS011;13988;52.446;13.280;2023-07-31T06:34:48;2.92;;;1.38;;
26261;SDS011;13988;52.446;13.280;2023-07-31T06:37:14;4.43;;;1.67;;
26261;SDS011;13988;52.446;13.280;2023-07-31T06:39:39;1.58;;;1.25;;
26261;SDS011;13988;52.446;13.280;2023-07-31T06:42:05;3.00;;;1.33;;
26261;SDS011;13988;52.446;13.280;2023-07-31T06:44:31;3.55;;;1.35;;
26261;SDS011;13988;52.446;13.280;2023-07-31T06:46:57;3.78;;;1.38;;
26261;SDS011;13988;52.446;13.280;2023-07-31T06:49:22;3.90;;;1.33;;
26261;SDS011;13988;52.446;13.280;2023-07-31T06:51:48;2.42;;;1.15;;
26261;SDS011;13988;52.446;13.280;2023-07-31T06:54:13;2.25;;;1.42;;
26261;SDS011;13988;52.446;13.280;2023-07-31T06:56:39;4.20;;;1.80;;
26261;SDS011;13988;52.446;13.280;2023-07-31T06:59:04;4.95;;;2.03;;
26261;SDS011;13988;52.446;13.280;2023-07-31T07:01:30;2.90;;;1.60;;
26261;SDS011;13988;52.446;13.280;2023-07-31T07:03:56;3.90;;;1.52;;
26261;SDS011;13988;52.446;13.280;2023-07-31T07:06:22;1.48;;;1.35;;
26261;SDS011;13988;52.446;13.280;2023-07-31T07:08:47;2.03;;;1.70;;
26261;SDS011;13988;52.446;13.280;2023-07-31T07:11:13;2.45;;;1.45;;
26261;SDS011;13988;52.446;13.280;2023-07-31T07:13:39;3.90;;;1.95;;
26261;SDS011;13988;52.446;13.280;2023-07-31T07:16:04;4.20;;;1.45;;
26261;SDS011;13988;52.446;13.280;2023-07-31T07:18:30;4.53;;;1.42;;
26261;SDS011;13988;52.446;13.280;2023-07-31T07:20:56;3.35;;;1.58;;
26261;SDS011;13988;52.446;13.280;2023-07-31T07:23:23;3.80;;;1.52;;
26261;SDS011;13988;52.446;13.280;2023-07-31T07:25:49;2.03;;;1.40;;
26261;SDS011;13988;52.446;13.280;2023-07-31T07:28:16;3.38;;;1.20;;
26261;SDS011;13988;52.446;13.280;2023-07-31T07:30:41;2.13;;;1.42;;
26261;SDS011;13988;52.446;13.280;2023-07-31T07:33:07;1.67;;;1.48;;
26261;SDS011;13988;52.446;13.280;2023-07-31T07:35:33;3.22;;;1.52;;
26261;SDS011;13988;52.446;13.280;2023-07-31T07:37:59;3.38;;;1.58;;
26261;SDS011;13988;52.446;13.280;2023-07-31T07:40:25;1.85;;;1.50;;
26261;SDS011;13988;52.446;13.280;2023-07-31T07:42:51;2.80;;;1.52;;
26261;SDS011;13988;52.446;13.280;2023-07-31T07:45:17;3.55;;;1.58;;
26261;SDS011;13988;52.446;13.280;2023-07-31T07:47:42;2.70;;;1.70;;
26261;SDS011;13988;52.446;13.280;2023-07-31T07:50:08;2.97;;;1.85;;
26261;SDS011;13988;52.446;13.280;2023-07-31T07:52:34;1.58;;;1.33;;
26261;SDS011;13988;52.446;13.280;2023-07-31T07:55:00;1.95;;;1.30;;
26261;SDS011;13988;52.446;13.280;2023-07-31T07:57:26;1.65;;;1.35;;
26261;SDS011;13988;52.446;13.280;2023-07-31T07:59:52;1.35;;;1.10;;
26261;SDS011;13988;52.446;13.280;2023-07-31T08:02:17;1.35;;;1.25;;
26261;SDS011;13988;52.446;13.280;2023-07-31T08:04:43;1.83;;;1.45;;
26261;SDS011;13988;52.446;13.280;2023-07-31T08:07:10;3.33;;;1.38;;
26261;SDS011;13988;52.446;13.280;2023-07-31T08:09:37;1.27;;;1.17;;
26261;SDS011;13988;52.446;13.280;2023-07-31T08:12:03;1.77;;;1.45;;
26261;SDS011;13988;52.446;13.280;2023-07-31T08:14:29;1.20;;;1.10;;
26261;SDS011;13988;52.446;13.280;2023-07-31T08:16:55;1.58;;;1.35;;
26261;SDS011;13988;52.446;13.280;2023-07-31T08:19:21;2.83;;;1.08;;
26261;SDS011;13988;52.446;13.280;2023-07-31T08:21:46;2.92;;;1.48;;
26261;SDS011;13988;52.446;13.280;2023-07-31T08:24:12;1.95;;;1.60;;
26261;SDS011;13988;52.446;13.280;2023-07-31T08:26:38;1.70;;;1.40;;
26261;SDS011;13988;52.446;13.280;2023-07-31T08:29:03;1.67;;;1.40;;
26261;SDS011;13988;52.446;13.280;2023-07-31T08:31:29;1.63;;;1.00;;
26261;SDS011;13988;52.446;13.280;2023-07-31T08:33:55;1.40;;;1.30;;
26261;SDS011;13988;52.446;13.280;2023-07-31T08:36:21;2.75;;;1.60;;
26261;SDS011;13988;52.446;13.280;2023-07-31T08:38:47;3.72;;;2.35;;
26261;SDS011;13988;52.446;13.280;2023-07-31T08:41:12;2.80;;;1.40;;
26261;SDS011;13988;52.446;13.280;2023-07-31T08:43:38;1.52;;;1.20;;
26261;SDS011;13988;52.446;13.280;2023-07-31T08:46:05;4.15;;;1.90;;
26261;SDS011;13988;52.446;13.280;2023-07-31T08:48:31;1.48;;;1.23;;
26261;SDS011;13988;52.446;13.280;2023-07-31T08:50:58;1.63;;;1.30;;
26261;SDS011;13988;52.446;13.280;2023-07-31T08:53:23;1.70;;;1.45;;
26261;SDS011;13988;52.446;13.280;2023-07-31T08:55:49;1.58;;;1.38;;
26261;SDS011;13988;52.446;13.280;2023-07-31T08:58:17;1.48;;;1.27;;
26261;SDS011;13988;52.446;13.280;2023-07-31T09:00:45;6.40;;;1.30;;
26261;SDS011;13988;52.446;13.280;2023-07-31T09:03:15;1.90;;;1.20;;
26261;SDS011;13988;52.446;13.280;2023-07-31T09:05:43;1.23;;;1.10;;
26261;SDS011;13988;52.446;13.280;2023-07-31T09:08:11;1.65;;;1.17;;
26261;SDS011;13988;52.446;13.280;2023-07-31T09:10:41;1.80;;;1.17;;
26261;SDS011;13988;52.446;13.280;2023-07-31T09:13:08;0.70;;;0.70;;
26261;SDS011;13988;52.446;13.280;2023-07-31T09:15:34;1.23;;;0.98;;
26261;SDS011;13988;52.446;13.280;2023-07-31T09:18:01;1.23;;;0.80;;
26261;SDS011;13988;52.446;13.280;2023-07-31T09:20:27;0.93;;;0.82;;
26261;SDS011;13988;52.446;13.280;2023-07-31T09:22:53;1.10;;;0.88;;
26261;SDS011;13988;52.446;13.280;2023-07-31T09:25:24;1.13;;;0.65;;
26261;SDS011;13988;52.446;13.280;2023-07-31T09:30:18;0.98;;;0.80;;
26261;SDS011;13988;52.446;13.280;2023-07-31T09:32:44;0.80;;;0.80;;
26261;SDS011;13988;52.446;13.280;2023-07-31T09:40:24;0.50;;;0.50;;
26261;SDS011;13988;52.446;13.280;2023-07-31T09:42:51;0.40;;;0.40;;
26261;SDS011;13988;52.446;13.280;2023-07-31T09:45:17;1.35;;;0.65;;
26261;SDS011;13988;52.446;13.280;2023-07-31T09:47:47;0.68;;;0.60;;
26261;SDS011;13988;52.446;13.280;2023-07-31T09:50:16;1.60;;;0.85;;
26261;SDS011;13988;52.446;13.280;2023-07-31T09:52:42;0.80;;;0.80;;
26261;SDS011;13988;52.446;13.280;2023-07-31T09:55:08;1.33;;;1.10;;
26261;SDS011;13988;52.446;13.280;2023-07-31T09:57:39;2.92;;;1.17;;
26261;SDS011;13988;52.446;13.280;2023-07-31T10:00:09;1.27;;;1.08;;
26261;SDS011;13988;52.446;13.280;2023-07-31T10:02:36;3.13;;;1.50;;
26261;SDS011;13988;52.446;13.280;2023-07-31T10:05:03;1.33;;;1.13;;
26261;SDS011;13988;52.446;13.280;2023-07-31T10:07:30;1.60;;;1.50;;
26261;SDS011;13988;52.446;13.280;2023-07-31T10:09:59;3.05;;;1.38;;
26261;SDS011;13988;52.446;13.280;2023-07-31T10:12:25;2.47;;;1.45;;
26261;SDS011;13988;52.446;13.280;2023-07-31T10:14:55;2.70;;;1.80;;
26261;SDS011;13988;52.446;13.280;2023-07-31T10:17:21;3.20;;;2.20;;
26261;SDS011;13988;52.446;13.280;2023-07-31T10:19:48;1.92;;;1.60;;
26261;SDS011;13988;52.446;13.280;2023-07-31T10:22:15;2.47;;;2.05;;
26261;SDS011;13988;52.446;13.280;2023-07-31T10:24:44;2.15;;;1.75;;
26261;SDS011;13988;52.446;13.280;2023-07-31T10:27:11;2.60;;;1.83;;
26261;SDS011;13988;52.446;13.280;2023-07-31T10:29:37;3.20;;;2.00;;
26261;SDS011;13988;52.446;13.280;2023-07-31T10:32:04;4.90;;;1.73;;
26261;SDS011;13988;52.446;13.280;2023-07-31T10:34:35;3.85;;;2.42;;
26261;SDS011;13988;52.446;13.280;2023-07-31T10:42:35;2.55;;;1.98;;
26261;SDS011;13988;52.446;13.280;2023-07-31T10:45:14;5.00;;;2.13;;
26261;SDS011;13988;52.446;13.280;2023-07-31T10:48:02;2.00;;;1.80;;
26261;SDS011;13988;52.446;13.280;2023-07-31T10:50:30;5.43;;;2.90;;
26261;SDS011;13988;52.446;13.280;2023-07-31T10:53:00;5.40;;;2.10;;
26261;SDS011;13988;52.446;13.280;2023-07-31T10:55:33;2.47;;;1.75;;
26261;SDS011;13988;52.446;13.280;2023-07-31T10:58:11;3.95;;;2.30;;
26261;SDS011;13988;52.446;13.280;2023-07-31T11:00:41;2.83;;;1.92;;
26261;SDS011;13988;52.446;13.280;2023-07-31T11:03:19;3.25;;;2.10;;
26261;SDS011;13988;52.446;13.280;2023-07-31T11:05:51;2.55;;;1.70;;
26261;SDS011;13988;52.446;13.280;2023-07-31T11:08:23;3.33;;;1.85;;
26261;SDS011;13988;52.446;13.280;2023-07-31T11:11:11;3.90;;;1.95;;
26261;SDS011;13988;52.446;13.280;2023-07-31T11:16:14;2.75;;;1.90;;
26261;SDS011;13988;52.446;13.280;2023-07-31T11:18:41;3.63;;;2.05;;
26261;SDS011;13988;52.446;13.280;2023-07-31T11:21:14;3.67;;;1.70;;
26261;SDS011;13988;52.446;13.280;2023-07-31T11:23:45;2.03;;;1.58;;
26261;SDS011;13988;52.446;13.280;2023-07-31T11:26:14;3.78;;;1.63;;
26261;SDS011;13988;52.446;13.280;2023-07-31T11:28:40;2.40;;;1.58;;
26261;SDS011;13988;52.446;13.280;2023-07-31T11:31:09;3.55;;;1.55;;
26261;SDS011;13988;52.446;13.280;2023-07-31T11:33:35;1.90;;;1.60;;
26261;SDS011;13988;52.446;13.280;2023-07-31T11:36:01;2.60;;;1.80;;
26261;SDS011;13988;52.446;13.280;2023-07-31T11:38:28;2.90;;;2.05;;
26261;SDS011;13988;52.446;13.280;2023-07-31T11:40:56;2.17;;;1.60;;
26261;SDS011;13988;52.446;13.280;2023-07-31T11:43:30;2.08;;;1.50;;
26261;SDS011;13988;52.446;13.280;2023-07-31T11:45:57;2.35;;;1.80;;
26261;SDS011;13988;52.446;13.280;2023-07-31T11:50:52;2.50;;;1.58;;
26261;SDS011;13988;52.446;13.280;2023-07-31T11:53:38;4.40;;;1.30;;
26261;SDS011;13988;52.446;13.280;2023-07-31T11:56:18;2.88;;;1.65;;
26261;SDS011;13988;52.446;13.280;2023-07-31T11:58:45;2.42;;;1.45;;
26261;SDS011;13988;52.446;13.280;2023-07-31T12:01:15;5.35;;;1.80;;
26261;SDS011;13988;52.446;13.280;2023-07-31T12:03:44;5.10;;;2.40;;
26261;SDS011;13988;52.446;13.280;2023-07-31T12:06:11;2.83;;;1.95;;
26261;SDS011;13988;52.446;13.280;2023-07-31T12:08:37;6.63;;;2.08;;
26261;SDS011;13988;52.446;13.280;2023-07-31T12:11:04;2.95;;;1.80;;
26261;SDS011;13988;52.446;13.280;2023-07-31T12:13:31;2.67;;;1.70;;
26261;SDS011;13988;52.446;13.280;2023-07-31T12:15:58;6.18;;;2.08;;
26261;SDS011;13988;52.446;13.280;2023-07-31T12:18:26;3.70;;;1.98;;
26261;SDS011;13988;52.446;13.280;2023-07-31T12:20:54;3.05;;;1.73;;
26261;SDS011;13988;52.446;13.280;2023-07-31T12:23:30;3.72;;;2.00;;
26261;SDS011;13988;52.446;13.280;2023-07-31T12:31:11;1.90;;;1.45;;
26261;SDS011;13988;52.446;13.280;2023-07-31T12:33:42;3.83;;;1.58;;
26261;SDS011;13988;52.446;13.280;2023-07-31T12:36:12;2.78;;;1.80;;
26261;SDS011;13988;52.446;13.280;2023-07-31T12:38:39;3.08;;;1.60;;
26261;SDS011;13988;52.446;13.280;2023-07-31T12:41:05;5.15;;;1.92;;
26261;SDS011;13988;52.446;13.280;2023-07-31T12:43:32;5.70;;;1.95;;
26261;SDS011;13988;52.446;13.280;2023-07-31T12:46:01;2.97;;;1.42;;
26261;SDS011;13988;52.446;13.280;2023-07-31T12:48:27;3.58;;;1.65;;
26261;SDS011;13988;52.446;13.280;2023-07-31T12:50:53;1.48;;;1.00;;
26261;SDS011;13988;52.446;13.280;2023-07-31T12:53:18;2.00;;;1.33;;
26261;SDS011;13988;52.446;13.280;2023-07-31T12:55:44;2.72;;;1.50;;
26261;SDS011;13988;52.446;13.280;2023-07-31T12:58:10;1.70;;;1.17;;
26261;SDS011;13988;52.446;13.280;2023-07-31T13:00:35;3.40;;;1.13;;
26261;SDS011;13988;52.446;13.280;2023-07-31T13:03:01;2.72;;;1.40;;
26261;SDS011;13988;52.446;13.280;2023-07-31T13:05:28;4.60;;;1.30;;
26261;SDS011;13988;52.446;13.280;2023-07-31T13:07:54;3.47;;;1.40;;
26261;SDS011;13988;52.446;13.280;2023-07-31T13:10:20;1.40;;;1.08;;
26261;SDS011;13988;52.446;13.280;2023-07-31T13:12:48;1.20;;;1.00;;
26261;SDS011;13988;52.446;13.280;2023-07-31T13:15:13;1.40;;;1.30;;
26261;SDS011;13988;52.446;13.280;2023-07-31T13:17:39;2.15;;;1.30;;
26261;SDS011;13988;52.446;13.280;2023-07-31T13:20:05;3.15;;;1.70;;
26261;SDS011;13988;52.446;13.280;2023-07-31T13:22:31;3.22;;;1.40;;
26261;SDS011;13988;52.446;13.280;2023-07-31T13:24:57;2.65;;;1.55;;
26261;SDS011;13988;52.446;13.280;2023-07-31T13:27:22;2.42;;;1.52;;
26261;SDS011;13988;52.446;13.280;2023-07-31T13:29:49;4.32;;;1.65;;
26261;SDS011;13988;52.446;13.280;2023-07-31T13:32:18;3.05;;;1.85;;
26261;SDS011;13988;52.446;13.280;2023-07-31T13:34:45;2.40;;;1.50;;
26261;SDS011;13988;52.446;13.280;2023-07-31T13:37:11;1.80;;;1.42;;
26261;SDS011;13988;52.446;13.280;2023-07-31T13:39:38;3.40;;;1.85;;
26261;SDS011;13988;52.446;13.280;2023-07-31T13:42:04;3.20;;;1.33;;
26261;SDS011;13988;52.446;13.280;2023-07-31T13:44:33;4.13;;;1.77;;
26261;SDS011;13988;52.446;13.280;2023-07-31T13:47:01;3.30;;;1.95;;
26261;SDS011;13988;52.446;13.280;2023-07-31T13:49:28;2.80;;;1.98;;
26261;SDS011;13988;52.446;13.280;2023-07-31T13:51:54;2.95;;;1.85;;
26261;SDS011;13988;52.446;13.280;2023-07-31T13:54:20;4.15;;;1.63;;
26261;SDS011;13988;52.446;13.280;2023-07-31T13:56:45;2.95;;;1.55;;
26261;SDS011;13988;52.446;13.280;2023-07-31T13:59:11;1.92;;;1.70;;
26261;SDS011;13988;52.446;13.280;2023-07-31T14:01:37;1.38;;;1.27;;
26261;SDS011;13988;52.446;13.280;2023-07-31T14:04:03;2.00;;;1.20;;
26261;SDS011;13988;52.446;13.280;2023-07-31T14:06:28;2.92;;;1.58;;
26261;SDS011;13988;52.446;13.280;2023-07-31T14:08:54;5.80;;;2.15;;
26261;SDS011;13988;52.446;13.280;2023-07-31T14:11:20;3.80;;;1.63;;
26261;SDS011;13988;52.446;13.280;2023-07-31T14:13:52;3.08;;;2.08;;
26261;SDS011;13988;52.446;13.280;2023-07-31T14:16:17;1.80;;;1.30;;
26261;SDS011;13988;52.446;13.280;2023-07-31T14:18:43;3.22;;;2.13;;
26261;SDS011;13988;52.446;13.280;2023-07-31T14:21:10;1.90;;;1.50;;
26261;SDS011;13988;52.446;13.280;2023-07-31T14:23:36;3.45;;;2.42;;
26261;SDS011;13988;52.446;13.280;2023-07-31T14:26:02;2.65;;;1.98;;
26261;SDS011;13988;52.446;13.280;2023-07-31T14:28:27;3.97;;;1.90;;
26261;SDS011;13988;52.446;13.280;2023-07-31T14:30:53;2.17;;;1.65;;
26261;SDS011;13988;52.446;13.280;2023-07-31T14:33:18;2.92;;;1.77;;
26261;SDS011;13988;52.446;13.280;2023-07-31T14:35:44;1.98;;;1.60;;
26261;SDS011;13988;52.446;13.280;2023-07-31T14:38:10;2.30;;;1.35;;
26261;SDS011;13988;52.446;13.280;2023-07-31T14:40:35;3.85;;;1.88;;
26261;SDS011;13988;52.446;13.280;2023-07-31T14:43:03;2.15;;;1.73;;
26261;SDS011;13988;52.446;13.280;2023-07-31T14:45:29;3.42;;;2.00;;
26261;SDS011;13988;52.446;13.280;2023-07-31T14:47:54;3.88;;;2.00;;
26261;SDS011;13988;52.446;13.280;2023-07-31T14:50:20;2.38;;;1.63;;
26261;SDS011;13988;52.446;13.280;2023-07-31T14:52:47;1.40;;;1.30;;
26261;SDS011;13988;52.446;13.280;2023-07-31T14:55:13;2.75;;;1.52;;
26261;SDS011;13988;52.446;13.280;2023-07-31T14:57:38;4.78;;;1.70;;
26261;SDS011;13988;52.446;13.280;2023-07-31T15:00:04;3.42;;;1.65;;